Tiempo atmosférico en la estación meteorológica de Carrión De Los Condes, Palencia (830 m.)



Fecha
DESCASC
Temp. máxima en grados centígrados (hora)
DESCASC
Temp. mínima en grados centígrados (hora)
DESCASC
Temp. media en grados centígrados
DESCASC
Racha de viento máxima en m/sg (hora)
DESCASC
Velocidad máxima media en intervalos de 10 minutos(hora)
DESCASC
Precipitaciones diarias en mm
DESCASC
Precipitaciones de 00:00 a 06:00 en mm
DESCASC
Precipitaciones de 06:00 a 12:00 en mm
DESCASC
Precipitaciones de 12:00 a 18:00 en mm
DESCASC
Precipitaciones de 18:00 a 24:00 en mm
DESCASC
14-12-2019 11.9 (13:50) 5.5 (02:30) 8.7 13.61 (23:10) 6.11 (20:10) 0 0 0 0 0
13-12-2019 16.2 (15:30) 6 (23:50) 11.1 11.94 (16:20) 5.28 (21:10) 0 0 0 0 0
12-12-2019 8.1 (23:20) 2 (00:30) 5.1 14.17 (12:20) 5.83 (11:50) 1.4 0 0.2 1.2 0
11-12-2019 9.7 (15:00) 1.7 (00:00) 5.7 6.94 (21:40) 2.5 (23:00) 2 0 2 0 0
10-12-2019 5.8 (14:40) -1.9 (03:10) 2 5 (15:10) 2.5 (14:50) 0 0 0 0 0
09-12-2019 7.8 (15:30) -0.3 (23:59) 3.8 4.72 (20:40) 2.22 (05:50) 0 0 0 0 0
08-12-2019 6.9 (16:40) 3.5 (00:00) 5.2 3.89 (14:10) 2.5 (09:20) 1.8 0 0.2 1.6 0
07-12-2019 8.3 (15:50) 0.5 (00:00) 4.4 3.89 (08:20) 2.22 (15:50) 0 0 0 0 0
06-12-2019 10.6 (15:40) -1.4 (-00:0) 4.6 5.56 (01:40) 2.22 (12:00) 0 0 0 0 0
05-12-2019 9.5 (15:00) 2.1 (00:00) 5.8 12.22 (15:50) 5.56 (15:50) 0 0 0 0 0
04-12-2019 11.4 (15:00) -1.6 (06:10) 4.9 11.11 (20:10) 5.28 (20:50) 0 0 0 0 0
03-12-2019 6.1 (14:10) -0.4 (00:00) 2.8 12.5 (10:10) 6.11 (06:00) 0 0 0 0 0
02-12-2019 8 (12:40) 2 (00:00) 5 16.11 (15:50) 7.22 (15:20) 0 0 0 0 0
01-12-2019 7.9 (15:30) 3.5 (00:00) 5.7 8.89 (23:00) 4.44 (23:10) 3.6 0.4 2.6 0.6 0
30-11-2019 11.8 (11:10) 3.6 (00:00) 7.7 15.28 (12:30) 7.5 (11:20) 12.4 1 4.8 6.6 0
29-11-2019 12.8 (15:50) 6.7 (00:00) 9.8 9.72 (00:10) 4.17 (00:10) 0.2 0 0 0 0.2
28-11-2019 11.1 (15:10) 7.9 (00:20) 9.5 13.89 (14:30) 7.22 (15:50) 5.2 0 0 0.4 4.8
27-11-2019 9.2 (14:40) 6 (00:00) 7.6 12.5 (12:00) 5.83 (12:00) 1 0 0 1 0
26-11-2019 12.8 (13:30) 7.2 (00:00) 10 17.78 (17:30) 8.61 (19:30) 6.2 0 1.2 4.4 0.6
25-11-2019 14.5 (14:50) 7 (23:30) 10.8 9.17 (07:00) 4.72 (04:50) 0.4 0.4 0 0 0
24-11-2019 8.3 (15:30) -0.5 (-00:0) 3.9 8.61 (15:50) 4.44 (20:00) 1 0 0 0 1
23-11-2019 11 (14:00) 2.4 (00:00) 6.7 15.28 (00:50) 5 (00:40) 0 0 0 0 0
22-11-2019 12.1 (15:10) 3.9 (00:00) 8 16.11 (12:40) 8.61 (14:30) 16.4 1.6 6.8 7.6 0.4
21-11-2019 10.9 (15:30) 2.2 (00:00) 6.5 8.61 (05:00) 4.17 (02:00) 1.2 0 1.2 0 0
20-11-2019 6.2 (14:10) 2.9 (04:30) 4.5 9.44 (23:59) 4.17 (23:30) 4.6 0 0.8 3.4 0.4
19-11-2019 7.6 (14:40) -3.9 (-00:0) 1.8 4.72 (15:50) 1.94 (12:50) 0 0 0 0 0
18-11-2019 9.6 (15:00) -1.8 (-00:0) 3.9 5.56 (15:50) 2.5 (15:40) 0 0 0 0 0
17-11-2019 11.6 (15:10) 0.8 (00:00) 6.2 7.78 (08:20) 3.06 (08:50) 0 0 0 0 0
16-11-2019 8.8 (13:30) -2.8 (-00:0) 3 5.83 (12:10) 1.94 (00:10) 0 0 0 0 0

Gráficas

Temp. máximas Temp. mínimas Temp. medias Precipitaciones Rachas de viento máximas Velocidades máximas media en intervalos de 10 minutos

Datos horarios

Fecha y hora oficial Temperatura (ºC) Velocidad del viento (km/h) Dirección del viento Racha (km/h) Dirección de racha Precipitación (mm) Presión (hPa) Tendencia (hPa) Humedad (%)
2019-12-15 23:00:00 8.4 11 Sur 30 Sur 0 913 -1.1 84
2019-12-15 22:00:00 8.4 11 Sur 30 Sudoeste 0 913.6 -0.5 84
2019-12-15 21:00:00 8.3 9 Sur 33 Sudoeste 0 913.6 -0.8 83
2019-12-15 20:00:00 9 16 Sudoeste 30 Sur 0 914.1 -0.6 81
2019-12-15 19:00:00 9 14 Sudoeste 30 Sudoeste 0 914.1 -0.9 85
2019-12-15 18:00:00 9.2 4 Sudoeste 28 Sur 0.2 914.4 -1.1 84
2019-12-15 17:00:00 9.6 14 Sudoeste 32 Sudoeste 0 914.7 -1.5 81
2019-12-15 16:00:00 10.1 13 Sudoeste 36 Sudoeste 0 915 -1.6 79
2019-12-15 15:00:00 10.1 17 Sudoeste 44 Sudoeste 0 915.5 -1.8 77
2019-12-15 14:00:00 10.2 19 Sudoeste 44 Sudoeste 0 916.2 -1.4 74
2019-12-15 13:00:00 10.2 22 Sudoeste 51 Sudoeste 0 916.6 -1.1 72
2019-12-15 12:00:00 10.2 19 Sudoeste 43 Sudoeste 0 917.3 -0.1 73
2019-12-15 11:00:00 8.5 20 Sudoeste 40 Sudoeste 0 917.6 0.3 81
2019-12-15 10:00:00 7.9 15 Sudoeste 31 Sudoeste 0 917.7 0.4 84
2019-12-15 09:00:00 7.4 14 Sudoeste 29 Sudoeste 0 917.4 -0.3 87
2019-12-15 08:00:00 7.3 16 Sudoeste 32 Sudoeste 0 917.3 -0.8 89
2019-12-15 07:00:00 7.5 14 Sudoeste 32 Sudoeste 0 917.3 -1.3 87
2019-12-15 06:00:00 7.8 14 Sudoeste 33 Sudoeste 0 917.7 -1.4 86
2019-12-15 05:00:00 7.7 12 Sudoeste 37 Sudoeste 0 918.1 -1.3 92
2019-12-15 04:00:00 7.8 18 Sudoeste 33 Sudoeste 0 918.6 -1.3 94
2019-12-15 03:00:00 7.9 17 Sudoeste 33 Sudoeste 0 919.1 -1.1 92
2019-12-15 02:00:00 7.8 19 Sudoeste 36 Sur 0 919.4 -0.7 92
2019-12-15 01:00:00 7.8 17 Sudoeste 39 Sudoeste 0.2 919.9 -0.3 97
2019-12-15 00:00:00 7.8 17 Sudoeste 49 Sudoeste 0 920.2 -0.3 96
2019-12-14 23:00:00 7.6 15 Sudoeste 36 Sudoeste 0 920.1 -0.3 90
2019-12-14 22:00:00 7.8 18 Sudoeste 40 Sudoeste 0 920.2 -0.1 88
2019-12-14 21:00:00 8.4 17 Sudoeste 41 Sudoeste 0 920.5 -0.1 87
2019-12-14 20:00:00 8.4 19 Sudoeste 41 Sudoeste 0 920.4 -0.2 88
2019-12-14 19:00:00 8.6 15 Sudoeste 34 Sudoeste 0 920.3 -0.1 83
2019-12-14 18:00:00 9.3 12 Sudoeste 37 Sudoeste 0 920.6 -0.2 82
2019-12-14 17:00:00 9.8 13 Sudoeste 33 Sudoeste 0 920.6 -0.7 81
2019-12-14 16:00:00 10.6 17 Sudoeste 41 Sudoeste 0 920.4 -1.3 77
2019-12-14 15:00:00 10.5 14 Sudoeste 35 Sudoeste 0 920.8 -2 80
2019-12-14 14:00:00 11.6 13 Sudoeste 34 Sudoeste 0 921.3 -1.5 74
2019-12-14 13:00:00 10.3 17 Sudoeste 36 Sudoeste 0 921.7 -1 79
2019-12-14 12:00:00 9.2 10 Sudoeste 35 Sudoeste 0 922.8 0.5 85
2019-12-14 11:00:00 8.3 13 Sudoeste 37 Sudoeste 0 922.8 0.7 88
2019-12-14 10:00:00 7.8 14 Sudoeste 36 Sur 0 922.7 1.1 97
2019-12-14 09:00:00 6.7 16 Sudoeste 36 Sudoeste 0 922.3 0.8 99
2019-12-14 08:00:00 6 13 Sudoeste 33 Sudoeste 0 922.1 0.8 98
2019-12-14 07:00:00 5.6 12 Sudoeste 31 Sudoeste 0 921.6 0.1 97
2019-12-14 06:00:00 5.7 11 Sudoeste 41 Oeste 0 921.5 0 96
2019-12-14 05:00:00 5.6 14 Sudoeste 33 Sudoeste 0 921.3 0.1 96
2019-12-14 04:00:00 5.6 15 Sudoeste 32 Sudoeste 0 921.5 0.1 89
2019-12-14 03:00:00 5.6 10 Sudoeste 28 Sudoeste 0 921.5 0.5 87
2019-12-14 02:00:00 5.7 10 Sudoeste 23 Sudoeste 0 921.2 0.2 85
2019-12-14 01:00:00 6.1 11 Sudoeste 23 Sudoeste 0 921.4 0.6 84
2019-12-14 00:00:00 6 5 Sudoeste 18 Sudoeste 0 921 0.4 84
2019-12-13 23:00:00 7.1 13 Sudoeste 25 Sudoeste 0 921 0.8 85
2019-12-13 22:00:00 7.9 13 Sudoeste 40 Sur 0 920.8 1 84
2019-12-13 21:00:00 8.7 17 Sudoeste 39 Sudoeste 0 920.6 1.3 84
2019-12-13 20:00:00 9.1 11 Sur 35 Sur 0 920.2 1.3 82
2019-12-13 19:00:00 10 12 Sudoeste 32 Sudoeste 0 919.8 1.1 80
2019-12-13 18:00:00 10.9 7 Sudoeste 32 Sudoeste 0 919.3 0.7 73
2019-12-13 17:00:00 12.5 6 Sudoeste 43 Sudoeste 0 918.9 0.4 69
2019-12-13 16:00:00 14.8 5 Sudoeste 35 Sudoeste 0 918.7 -0.2 64
2019-12-13 15:00:00 14.3 4 Oeste 33 Sudoeste 0 918.6 -0.2 68
2019-12-13 14:00:00 13.8 4 Oeste 31 Oeste 0 918.5 0.2 69
2019-12-13 13:00:00 15.6 6 Oeste 37 Oeste 0 918.9 1.3 71
2019-12-13 12:00:00 12.8 5 Oeste 32 Oeste 0 918.8 1.8 75
2019-12-13 11:00:00 11.6 5 Sudoeste 35 Sudoeste 0 918.3 1.7 79
2019-12-13 10:00:00 10.2 7 Oeste 36 Sudoeste 0 917.6 1.6 81
2019-12-13 09:00:00 9.7 11 Sudoeste 36 Sudoeste 0 917 1.6 80
2019-12-13 08:00:00 9.7 11 Sudoeste 37 Sudoeste 0 916.6 2 81
2019-12-13 07:00:00 9.4 10 Sudoeste 38 Sudoeste 0 916 1 82
2019-12-13 06:00:00 9.3 10 Sudoeste 40 Noroeste 0 915.4 0.1 83
2019-12-13 05:00:00 9.4 7 Oeste 40 Oeste 0 914.6 0 84
2019-12-13 04:00:00 9.1 6 Sudoeste 34 Sudoeste 0 915 0.1 87
2019-12-13 03:00:00 8.4 8 Sudoeste 33 Sudoeste 0 915.3 -0.2 92
2019-12-13 02:00:00 8.2 9 Sudoeste 30 Sudoeste 0 914.6 -0.4 92
2019-12-13 01:00:00 8.1 6 Sudoeste 26 Sudoeste 0 914.9 -0.1 94
2019-12-13 00:00:00 8.1 8 Sudoeste 30 Sudoeste 0 915.5 0.6 90
2019-12-12 23:00:00 8 9 Sudoeste 34 Oeste 0 915 -0.4 92
2019-12-12 22:00:00 7.4 6 Sudoeste 21 Sudoeste 0 915 0.3 95
2019-12-12 21:00:00 7.7 11 Sudoeste 25 Sudoeste 0 914.9 0.1 90
2019-12-12 20:00:00 7.6 7 Sudoeste 26 Oeste 0 915.4 0 92
2019-12-12 19:00:00 7.7 9 Sudoeste 28 Oeste 0 914.7 -0.7 90
2019-12-12 18:00:00 7.8 10 Sudoeste 23 Sudoeste 0.2 914.8 -1.3 93
2019-12-12 17:00:00 7.9 7 Sudoeste 32 Sudoeste 0.2 915.4 -1.6 88
2019-12-12 16:00:00 7.7 9 Sudoeste 33 Sudoeste 0 915.4 -2.8 88
2019-12-12 15:00:00 7.6 10 Sudoeste 39 Sudoeste 0.4 916.1 -3.8 86
2019-12-12 14:00:00 7.2 10 Sudoeste 41 Oeste 0.4 917 -3.9 91
2019-12-12 13:00:00 6.4 17 Sudoeste 51 Sudoeste 0 918.2 -3.7 90
2019-12-12 12:00:00 6.1 19 Sudoeste 47 Sudoeste 0 919.9 -2 94
2019-12-12 11:00:00 5.5 17 Sudoeste 48 Oeste 0.2 920.9 -1.4 96
2019-12-12 10:00:00 5 17 Sudoeste 40 Sudoeste 0 921.9 -1 97
2019-12-12 09:00:00 4.6 13 Sudoeste 49 Sudoeste 0 921.9 -1.9 97
2019-12-12 08:00:00 4.4 17 Sudoeste 46 Sudoeste 0 922.3 -2 98
2019-12-12 07:00:00 4.1 14 Sudoeste 36 Sudoeste 0 922.9 -2.3 98
2019-12-12 06:00:00 4 10 Sudoeste 32 Sudoeste 0 923.8 -2 98
2019-12-12 05:00:00 3.6 11 Sudoeste 29 Sudoeste 0 924.3 -1.8 98
2019-12-12 04:00:00 3.1 7 Sudoeste 29 Sudoeste 0 925.2 -1.7 98
2019-12-12 03:00:00 2.8 8 Sudoeste 24 Oeste 0 925.8 -1.6 96
2019-12-12 02:00:00 2.9 5 Oeste 22 Sudoeste 0 926.1 -1.4 94
2019-12-12 01:00:00 2.6 9 Sudoeste 21 Sudoeste 0 926.9 -0.8 96
2019-12-12 00:00:00 2.4 4 Sudoeste 21 Sudoeste 0 927.4 -0.4 89
2019-12-11 23:00:00 3.1 9 Sudoeste 21 Sur 0 927.5 -0.5 87
2019-12-11 22:00:00 2.8 5 Sudoeste 25 Oeste 0 927.7 -0.3 86
2019-12-11 21:00:00 2.9 3 Sudoeste 18 Sudoeste 0 927.8 0.1 85
2019-12-11 20:00:00 3.3 3 Oeste 17 Oeste 0 928 0.7 83
2019-12-11 19:00:00 3.7 8 Sudoeste 21 Sudoeste 0 928 0.7 79
2019-12-11 18:00:00 5 8 Sudoeste 21 Sudoeste 0 927.7 0.6 73
2019-12-11 17:00:00 6.7 5 Oeste 24 Oeste 0 927.3 0.1 66
2019-12-11 16:00:00 8.6 5 Oeste 22 Noroeste 0 927.3 -0.3 60
2019-12-11 15:00:00 9.6 4 Oeste 16 Noroeste 0 927.1 -0.9 58
2019-12-11 14:00:00 8.8 4 Oeste 18 Oeste 0 927.2 -0.4 65
2019-12-11 13:00:00 8.1 6 Oeste 24 Noroeste 0 927.6 0.4 67
2019-12-11 12:00:00 7.3 6 Noroeste 14 Noroeste 0 928 2.1 77
2019-12-11 11:00:00 5.2 3 Oeste 11 Noroeste 0 927.6 1.5 90
2019-12-11 10:00:00 2.6 3 Oeste 8 Norte 0 927.2 2 100
2019-12-11 09:00:00 2.2 2 Oeste 7 Sudoeste 0 925.9 0.1 100
2019-12-11 08:00:00 2.6 4 Oeste 10 Noroeste 1 926.1 0.2 100
2019-12-11 07:00:00 2.4 6 Sudoeste 13 Sudoeste 1 925.2 -1.2 100
2019-12-11 06:00:00 2.2 2 Oeste 10 Oeste 0 925.8 -1.4 100
2019-12-11 05:00:00 1.7 5 Sudoeste 13 Sudoeste 0 925.9 -1.7 100
2019-12-11 04:00:00 1.8 5 Sudoeste 13 Sudoeste 0 926.4 -1.9 100
2019-12-11 03:00:00 2 4 Sudoeste 11 Sudoeste 0 927.2 -1.3 100
2019-12-11 02:00:00 2.2 3 Oeste 12 Sudoeste 0 927.6 -1.4 100
2019-12-11 01:00:00 2.7 4 Sudoeste 10 Sudoeste 0 928.3 -0.7 100
2019-12-11 00:00:00 2.6 3 Sudoeste 11 Sudoeste 0 928.5 -1 100
2019-12-10 23:00:00 2.7 2 Oeste 6 Oeste 0 929 -1.3 100
2019-12-10 22:00:00 2.7 5 Sudoeste 9 Sudoeste 0 929 -1.3 99
2019-12-10 21:00:00 2.9 5 Sudoeste 10 Sudoeste 0 929.5 -0.7 99
2019-12-10 20:00:00 3.5 3 Sudoeste 6 Sudoeste 0 930.3 -0.4 98
2019-12-10 19:00:00 3.6 2 Oeste 6 Sudoeste 0 930.3 -0.6 97
2019-12-10 18:00:00 4.2 2 Sudoeste 7 Sudoeste 0 930.2 -1.4 96
2019-12-10 17:00:00 4.8 2 Oeste 9 Sudoeste 0 930.7 -1.3 94
2019-12-10 16:00:00 5.1 4 Sudoeste 18 Sudoeste 0 930.9 -2.2 96
2019-12-10 15:00:00 5.4 9 Sudoeste 17 Sudoeste 0 931.6 -2.3 96
2019-12-10 14:00:00 5.1 6 Sudoeste 12 Sudoeste 0 932 -2.4 100
2019-12-10 13:00:00 3.5 4 Sudoeste 12 Sur 0 933.1 -1.2 100
2019-12-10 12:00:00 2.4 5 Sudoeste 10 Sudoeste 0 933.9 -0.6 100
2019-12-10 11:00:00 1.2 4 Sudoeste 10 Sudoeste 0 934.4 0.1 --
2019-12-10 10:00:00 -0.1 3 Oeste 8 Oeste 0 934.3 0.1 --
2019-12-10 09:00:00 -0.2 2 Noroeste 13 Este 0 934.5 0.2 --
2019-12-10 08:00:00 -0.1 0 Calma 7 Sudeste 0 934.3 -0.8 --
2019-12-10 07:00:00 -0.2 0 Calma 13 Nordeste 0 934.2 -1 --
2019-12-10 06:00:00 -0.6 3 Noroeste 6 Noroeste 0 934.3 -1.1 --
2019-12-10 05:00:00 -1.6 0 Calma 14 Este 0 935.1 -0.7 --
2019-12-10 04:00:00 -1.7 0 Calma 4 Noroeste 0 935.2 -0.9 --
2019-12-10 03:00:00 -1.7 0 Calma 5 Oeste 0 935.4 -0.9 100
2019-12-10 02:00:00 -1.3 0 Calma 4 Noroeste 0 935.8 -0.1 100
2019-12-10 01:00:00 -0.8 0 Calma 17 Nordeste 0 936.1 0.2 100
2019-12-10 00:00:00 -0.3 2 Noroeste 4 Norte 0 936.3 0.5 100
2019-12-09 23:00:00 0.5 2 Sudoeste 6 Nordeste 0 935.9 0.4 99
2019-12-09 22:00:00 1.3 0 Calma 13 Nordeste 0 935.9 0.7 98
2019-12-09 21:00:00 2.1 2 Norte 17 Nordeste 0 935.8 1 97
2019-12-09 20:00:00 3.2 3 Norte 16 Nordeste 0 935.5 1.2 98
2019-12-09 19:00:00 3.9 3 Nordeste 5 Norte 0 935.2 1.2 96
2019-12-09 18:00:00 5.3 2 Norte 3 Norte 0 934.8 1.2 87
2019-12-09 17:00:00 7.1 0 Calma 6 Este 0 934.3 0.7 83
2019-12-09 16:00:00 7.5 4 Este 9 Sudeste 0 934 0 81
2019-12-09 15:00:00 7.5 3 Sudeste 15 Este 0 933.6 -0.6 79
2019-12-09 14:00:00 6.8 3 Este 9 Sudeste 0 933.6 -0.3 80
2019-12-09 13:00:00 5.4 5 Este 12 Este 0 934 0.4 84
2019-12-09 12:00:00 4.1 5 Nordeste 14 Nordeste 0 934.2 1.1 86
2019-12-09 11:00:00 4.2 3 Oeste 9 Oeste 0 933.9 1.6 99
2019-12-09 10:00:00 1.7 3 Oeste 10 Sudoeste 0 933.6 1.4 --
2019-12-09 09:00:00 1.8 2 Noroeste 14 Nordeste 0 933.1 0.9 --
2019-12-09 08:00:00 1.9 3 Oeste 12 Sudoeste 0 932.3 0.2 100
2019-12-09 07:00:00 1.8 4 Sudoeste 16 Oeste 0 932.2 0.1 100
2019-12-09 06:00:00 1.8 6 Sudoeste 14 Sudoeste 0 932.2 0.5 100
2019-12-09 05:00:00 1.2 5 Oeste 16 Oeste 0 932.1 0.7 --
2019-12-09 04:00:00 0.4 4 Oeste 13 Sudoeste 0 932.1 0.4 100
2019-12-09 03:00:00 0.6 3 Sudoeste 6 Oeste 0 931.7 0 100
2019-12-09 02:00:00 2.1 3 Oeste 12 Sudoeste 0 931.4 0.4 100
2019-12-09 01:00:00 3.4 6 Sudoeste 12 Sudoeste 0 931.7 0.9 100
2019-12-09 00:00:00 4.6 2 Oeste 12 Este 0 931.7 0.9 99
2019-12-08 23:00:00 5.3 3 Sudoeste 8 Noroeste 0 931 0.6 99
2019-12-08 22:00:00 5.6 0 Calma 10 Norte 0 930.8 1.2 99
2019-12-08 21:00:00 6.1 2 Norte 10 Norte 0 930.8 1.8 99
2019-12-08 20:00:00 6.6 2 Noroeste 12 Norte 0 930.4 1.8 99
2019-12-08 19:00:00 6.7 3 Noroeste 13 Nordeste 0 929.6 0.9 99
2019-12-08 18:00:00 6.6 2 Oeste 12 Sudoeste 0 929 0.7 99
2019-12-08 17:00:00 6.8 3 Oeste 14 Oeste 0 928.6 0.1 99
2019-12-08 16:00:00 6.8 4 Sudoeste 10 Oeste 0 928.7 -0.4 99
2019-12-08 15:00:00 6.6 2 Oeste 14 Sudoeste 0 928.3 -1.5 99
2019-12-08 14:00:00 5.9 5 Sudoeste 14 Sudoeste 0.4 928.5 -1.1 99
2019-12-08 13:00:00 5.2 4 Sudoeste 13 Sudoeste 1.2 929.1 -0.1 99
2019-12-08 12:00:00 4.5 2 Oeste 8 Sudoeste 0.2 929.8 0.8 100
2019-12-08 11:00:00 3.9 5 Sudoeste 12 Sudoeste 0 929.6 0.8 100
2019-12-08 10:00:00 3.6 6 Sudoeste 14 Sudoeste 0 929.2 0.4 100
2019-12-08 09:00:00 3.8 6 Sudoeste 14 Sudoeste 0 929 0.2 100
2019-12-08 08:00:00 4 4 Sudoeste 8 Sudoeste 0 928.8 0.1 100
2019-12-08 07:00:00 4.1 4 Sudoeste 8 Sudoeste 0 928.8 -0.1 100
2019-12-08 06:00:00 3.9 0 Calma 6 Oeste 0 928.8 -0.7 100
2019-12-08 05:00:00 3.7 2 Oeste 7 Sudoeste 0 928.7 -0.8 100
2019-12-08 04:00:00 3.6 3 Noroeste 7 Noroeste 0 928.9 -0.9 100
2019-12-08 03:00:00 3.7 3 Noroeste 6 Noroeste 0 929.5 -0.4 100
2019-12-08 02:00:00 3.8 0 Calma 7 Noroeste 0 929.5 -0.5 100
2019-12-08 01:00:00 3.8 2 Noroeste 6 Sur 0 929.8 0 100
2019-12-08 00:00:00 3.7 2 Sur 8 Noroeste 0 929.9 0.2 100
2019-12-07 23:00:00 3.5 3 Noroeste 10 Sudeste 0 930 0.4 100
2019-12-07 22:00:00 3.7 2 Este 6 Sudeste 0 929.8 0.6 99
2019-12-07 21:00:00 4.1 2 Noroeste 13 Norte 0 929.7 1.1 99
2019-12-07 20:00:00 4.4 3 Noroeste 13 Nordeste 0 929.6 1.2 98
2019-12-07 19:00:00 4.7 2 Sudoeste 6 Oeste 0 929.2 1 97
2019-12-07 18:00:00 5.3 0 Calma 8 Sudoeste 0 928.6 0.1 87
2019-12-07 17:00:00 7.5 4 Sur 9 Sudoeste 0 928.4 -0.4 85
2019-12-07 16:00:00 8.2 4 Sudoeste 13 Sudoeste 0 928.2 -1 83
2019-12-07 15:00:00 6.5 3 Sur 9 Sudoeste 0 928.5 -1.1 98
2019-12-07 14:00:00 5.5 2 Oeste 11 Sur 0 928.8 -0.7 99
2019-12-07 13:00:00 4.9 3 Sur 10 Sur 0 929.2 -0.1 100
2019-12-07 12:00:00 3.9 2 Este 7 Sudeste 0 929.6 0.6 100
2019-12-07 11:00:00 2.9 4 Este 10 Nordeste 0 929.5 0.8 100
2019-12-07 10:00:00 2.3 3 Sudeste 7 Noroeste 0 929.3 1 100
2019-12-07 09:00:00 1.5 0 Calma 14 Nordeste 0 929 1 100
2019-12-07 08:00:00 1.2 0 Calma 6 Noroeste 0 928.7 0.7 100
2019-12-07 07:00:00 1 0 Calma 4 Sudoeste 0 928.3 0.1 100
2019-12-07 06:00:00 0.5 0 Calma 4 Noroeste 0 928 -0.4 99
2019-12-07 05:00:00 1.1 2 Norte 4 Noroeste 0 928 -0.5 99
2019-12-07 04:00:00 2.4 0 Calma 3 Norte 0 928.2 -0.7 99
2019-12-07 03:00:00 3.7 0 Calma 5 Noroeste 0 928.4 -0.2 99
2019-12-07 02:00:00 3.8 3 Oeste 5 Noroeste 0 928.5 0 99
2019-12-07 01:00:00 3.3 0 Calma 4 Noroeste 0 928.9 0.9 99
2019-12-07 00:00:00 2.9 0 Calma 5 Sudoeste 0 928.6 0.8 99
2019-12-06 23:00:00 2.1 0 Calma 4 Noroeste 0 928.5 0.8 97
2019-12-06 22:00:00 3.3 0 Calma 6 Noroeste 0 928 0.8 97
2019-12-06 21:00:00 4.4 2 Oeste 5 Noroeste 0 927.8 1 97
2019-12-06 20:00:00 4.1 0 Calma 4 Sudeste 0 927.7 0.9 95
2019-12-06 19:00:00 5 3 Sudoeste 8 Sudoeste 0 927.2 0.7 83
2019-12-06 18:00:00 7.5 5 Sudoeste 9 Sudoeste 0 926.8 -0.2 77
2019-12-06 17:00:00 9.3 4 Sudoeste 7 Sudoeste 0 926.8 -0.7 71
2019-12-06 16:00:00 10.1 4 Sudoeste 7 Sudoeste 0 926.5 -1.7 64
2019-12-06 15:00:00 9.8 3 Oeste 8 Oeste 0 927 -1.6 67
2019-12-06 14:00:00 9.6 3 Sudoeste 10 Oeste 0 927.5 -1.5 67
2019-12-06 13:00:00 8.9 3 Sudeste 9 Este 0 928.2 -0.3 71
2019-12-06 12:00:00 7.6 8 Este 13 Este 0 928.6 0.6 76
2019-12-06 11:00:00 4.2 2 Noroeste 5 Noroeste 0 929 1.2 98
2019-12-06 10:00:00 1.8 0 Calma 5 Noroeste 0 928.5 0.8 99
2019-12-06 09:00:00 -0.4 4 Noroeste 16 Nordeste 0 928 0.6 100
2019-12-06 08:00:00 -0.9 2 Nordeste 5 Sudeste 0 927.8 0.3 99
2019-12-06 07:00:00 -1.1 0 Calma 12 Norte 0 927.7 0.3 98
2019-12-06 06:00:00 -0.5 0 Calma 15 Este 0 927.4 0 95
2019-12-06 05:00:00 0.5 2 Oeste 8 Noroeste 0 927.5 0.1 90
2019-12-06 04:00:00 2.2 4 Norte 20 Norte 0 927.4 -0.6 89
2019-12-06 03:00:00 1.4 3 Nordeste 18 Nordeste 0 927.4 -0.8 95
2019-12-06 02:00:00 2 6 Nordeste 20 Nordeste 0 927.4 -0.6 97
2019-12-06 01:00:00 2 2 Este 15 Este 0 928 0.2 92
2019-12-06 00:00:00 3 3 Nordeste 18 Norte 0 928.2 0.3 89
2019-12-05 23:00:00 3.1 8 Nordeste 20 Nordeste 0 928 0.4 96
2019-12-05 22:00:00 3.5 7 Este 21 Norte 0 927.8 0.7 88
2019-12-05 21:00:00 4.2 8 Nordeste 21 Nordeste 0 927.9 1.3 88
2019-12-05 20:00:00 5 7 Nordeste 20 Nordeste 0 927.6 1.5 87
2019-12-05 19:00:00 5.7 9 Nordeste 24 Nordeste 0 927.1 1.3 85
2019-12-05 18:00:00 6.4 11 Nordeste 30 Nordeste 0 926.6 0.9 83
2019-12-05 17:00:00 7.8 14 Nordeste 37 Nordeste 0 926.1 0.1 78
2019-12-05 16:00:00 8.4 16 Nordeste 44 Nordeste 0 925.8 -0.6 77
2019-12-05 15:00:00 9.3 19 Nordeste 40 Nordeste 0 925.7 -0.8 73
2019-12-05 14:00:00 8.6 15 Nordeste 37 Nordeste 0 926 -0.3 74
2019-12-05 13:00:00 8.3 15 Nordeste 35 Nordeste 0 926.4 0.7 74
2019-12-05 12:00:00 7 8 Nordeste 30 Nordeste 0 926.5 1.7 80
2019-12-05 11:00:00 6.8 13 Nordeste 32 Nordeste 0 926.3 2.5 79
2019-12-05 10:00:00 6.2 13 Nordeste 35 Nordeste 0 925.7 2.8 81
2019-12-05 09:00:00 5.9 17 Nordeste 40 Nordeste 0 924.8 2.3 84
2019-12-05 08:00:00 5 9 Nordeste 19 Nordeste 0 923.8 1.9 87
2019-12-05 07:00:00 4.4 6 Nordeste 21 Nordeste 0 922.9 0.9 87
2019-12-05 06:00:00 3.6 2 Nordeste 8 Este 0 922.5 0.8 86
2019-12-05 05:00:00 5.6 7 Nordeste 33 Nordeste 0 921.9 1 80
2019-12-05 04:00:00 5.3 13 Nordeste 28 Nordeste 0 922 1.4 83
2019-12-05 03:00:00 3.8 8 Este 26 Este 0 921.7 1.2 85
2019-12-05 02:00:00 2.4 7 Nordeste 18 Norte 0 920.9 1 85
2019-12-05 01:00:00 2.9 3 Este 17 Este 0 920.6 1.3 80
2019-12-05 00:00:00 3.5 8 Nordeste 32 Nordeste 0 920.5 1.1 79
2019-12-04 23:00:00 3.4 13 Nordeste 29 Nordeste 0 919.9 0.7 77
2019-12-04 22:00:00 3.9 13 Nordeste 32 Nordeste 0 919.3 0.8 75
2019-12-04 21:00:00 4.3 17 Nordeste 40 Norte 0 919.4 1.2 72
2019-12-04 20:00:00 4.7 14 Nordeste 29 Este 0 919.2 1.4 70
2019-12-04 19:00:00 5.6 13 Nordeste 26 Norte 0 918.5 1.2 65
2019-12-04 18:00:00 7 10 Nordeste 22 Nordeste 0 918.2 0.9 61
2019-12-04 17:00:00 9.4 9 Nordeste 22 Nordeste 0 917.8 0.5 61
2019-12-04 16:00:00 10.4 10 Nordeste 22 Nordeste 0 917.3 -0.6 57
2019-12-04 15:00:00 11.1 10 Este 24 Norte 0 917.3 -1.1 63
2019-12-04 14:00:00 10.6 13 Norte 25 Nordeste 0 917.3 -1.1 61
2019-12-04 13:00:00 8.5 5 Este 12 Este 0 917.9 -0.5 75
2019-12-04 12:00:00 7.4 6 Norte 16 Norte 0 918.4 0.4 75
2019-12-04 11:00:00 4.4 6 Norte 16 Norte 0 918.4 0.7 82
2019-12-04 10:00:00 1.3 2 Noroeste 15 Nordeste 0 918.4 0.7 97
2019-12-04 09:00:00 -0.6 0 Calma 6 Noroeste 0 918 0.2 94
2019-12-04 08:00:00 0.1 2 Noroeste 26 Norte 0 917.7 -0.7 87
2019-12-04 07:00:00 1.2 8 Norte 22 Norte 0 917.7 -1.2 87
2019-12-04 06:00:00 -1.5 2 Norte 9 Norte 0 917.8 -1.7 91
2019-12-04 05:00:00 -0.6 2 Noroeste 18 Nordeste 0 918.4 -1.6 87
2019-12-04 04:00:00 -0.3 5 Norte 17 Nordeste 0 918.9 -1.6 88
2019-12-04 03:00:00 -0.4 4 Noroeste 14 Nordeste 0 919.5 -1.5 88
2019-12-04 02:00:00 -0.2 6 Nordeste 21 Nordeste 0 920 -0.8 86
2019-12-04 01:00:00 -0.4 6 Nordeste 18 Nordeste 0 920.5 -0.3 88
2019-12-04 00:00:00 -0.3 9 Nordeste 22 Nordeste 0 921 0 87
2019-12-03 23:00:00 -0.1 8 Nordeste 19 Nordeste 0 920.8 0 85
2019-12-03 22:00:00 0.2 7 Nordeste 25 Nordeste 0 920.8 0.2 85
2019-12-03 21:00:00 0.5 6 Nordeste 18 Nordeste 0 921 0.6 84
2019-12-03 20:00:00 0.8 6 Nordeste 17 Nordeste 0 920.8 0.6 83
2019-12-03 19:00:00 1.2 5 Nordeste 23 Este 0 920.6 0.1 82
2019-12-03 18:00:00 2.7 9 Este 26 Este 0 920.4 -0.1 76
2019-12-03 17:00:00 4.2 13 Este 33 Este 0 920.2 -1 68
2019-12-03 16:00:00 5.8 13 Este 31 Este 0 920.5 -1.4 65
2019-12-03 15:00:00 5.4 12 Este 35 Nordeste 0 920.5 -2.4 65
2019-12-03 14:00:00 6 12 Este 41 Este 0 921.2 -2.1 63
2019-12-03 13:00:00 5.7 15 Este 41 Nordeste 0 921.9 -1.5 67
2019-12-03 12:00:00 5.6 15 Nordeste 41 Nordeste 0 922.9 -0.6 66
2019-12-03 11:00:00 4.4 16 Nordeste 45 Nordeste 0 923.3 -0.3 70
2019-12-03 10:00:00 3 13 Nordeste 38 Nordeste 0 923.4 -0.3 77
2019-12-03 09:00:00 2.6 11 Nordeste 29 Nordeste 0 923.5 -0.5 80
2019-12-03 08:00:00 2.5 12 Nordeste 36 Nordeste 0 923.6 -0.6 80
2019-12-03 07:00:00 2.5 17 Nordeste 41 Nordeste 0 923.7 -1 78
2019-12-03 06:00:00 2.5 22 Nordeste 42 Este 0 924 -0.7 80
2019-12-03 05:00:00 2 16 Nordeste 40 Nordeste 0 924.2 -0.7 78
2019-12-03 04:00:00 2.1 15 Nordeste 37 Nordeste 0 924.7 -0.8 78
2019-12-03 03:00:00 1.9 17 Nordeste 41 Nordeste 0 924.7 -1.1 81
2019-12-03 02:00:00 1.8 10 Nordeste 33 Nordeste 0 924.9 -0.8 81
2019-12-03 01:00:00 1.8 13 Nordeste 36 Nordeste 0 925.5 -0.6 82
2019-12-03 00:00:00 2 13 Nordeste 46 Nordeste 0 925.8 -0.8 79
2019-12-02 23:00:00 2.2 15 Nordeste 45 Nordeste 0 925.7 -0.7 77
2019-12-02 22:00:00 2.5 19 Nordeste 40 Nordeste 0 926.1 0.3 76
2019-12-02 21:00:00 2.3 11 Nordeste 45 Nordeste 0 926.6 1.1 79
2019-12-02 20:00:00 2.5 15 Nordeste 41 Nordeste 0 926.4 1.3 75
2019-12-02 19:00:00 3.3 15 Nordeste 43 Nordeste 0 925.8 1.4 73
2019-12-02 18:00:00 3.9 17 Nordeste 46 Nordeste 0 925.5 1.2 74
2019-12-02 17:00:00 5.3 21 Nordeste 53 Nordeste 0 925.1 0.7 74
2019-12-02 16:00:00 6.7 25 Nordeste 58 Nordeste 0 924.4 -0.2 72
2019-12-02 15:00:00 7.4 22 Nordeste 55 Nordeste 0 924.3 -0.5 71
2019-12-02 14:00:00 6.8 22 Nordeste 54 Nordeste 0 924.4 -0.3 70
2019-12-02 13:00:00 7.8 22 Nordeste 55 Nordeste 0 924.6 0.4 69
2019-12-02 12:00:00 7.1 22 Nordeste 45 Nordeste 0 924.8 1.2 74
2019-12-02 11:00:00 6.3 20 Nordeste 46 Nordeste 0 924.7 1.5 80
2019-12-02 10:00:00 5.2 13 Nordeste 30 Nordeste 0 924.2 1.5 84
2019-12-02 09:00:00 4.9 10 Nordeste 28 Norte 0 923.6 1.4 85
2019-12-02 08:00:00 4.2 9 Nordeste 21 Nordeste 0 923.2 1.4 87
2019-12-02 07:00:00 3.9 10 Nordeste 31 Nordeste 0 922.7 1 85
2019-12-02 06:00:00 3.1 10 Nordeste 24 Nordeste 0 922.2 0.6 86
2019-12-02 05:00:00 3.3 13 Nordeste 31 Nordeste 0 921.8 0.3 88
2019-12-02 04:00:00 3.1 12 Nordeste 23 Nordeste 0 921.7 0.5 88
2019-12-02 03:00:00 3.1 9 Nordeste 21 Nordeste 0 921.6 0.6 89
2019-12-02 02:00:00 3.4 8 Nordeste 29 Nordeste 0 921.5 0.7 88
2019-12-02 01:00:00 4 13 Nordeste 32 Nordeste 0 921.2 0.8 85
2019-12-02 00:00:00 4.5 11 Nordeste 31 Norte 0 921 1.2 83
2019-12-01 23:00:00 5.1 15 Nordeste 32 Nordeste 0 920.8 1.4 82
2019-12-01 22:00:00 5.4 12 Nordeste 30 Nordeste 0 920.4 1.7 82
2019-12-01 21:00:00 5.6 12 Nordeste 27 Nordeste 0 919.8 1.7 80
2019-12-01 20:00:00 5.2 8 Nordeste 20 Nordeste 0 919.4 1.7 84
2019-12-01 19:00:00 5.9 11 Nordeste 25 Nordeste 0 918.7 1.3 82
2019-12-01 18:00:00 6.2 2 Nordeste 9 Este 0 918.1 0.7 86
2019-12-01 17:00:00 7.2 3 Este 18 Este 0 917.7 0 84
2019-12-01 16:00:00 7.2 5 Este 14 Este 0 917.4 -0.2 83
2019-12-01 15:00:00 7.1 4 Nordeste 10 Este 0 917.4 -0.2 83
2019-12-01 14:00:00 6.3 4 Este 12 Este 0.2 917.7 0.2 87
2019-12-01 13:00:00 6.3 6 Este 20 Este 0.4 917.6 0.7 91
2019-12-01 12:00:00 5.9 10 Sudeste 22 Este 0.4 917.6 1.2 97
2019-12-01 11:00:00 5.6 6 Sudeste 16 Este 1 917.5 1.6 98
2019-12-01 10:00:00 5.1 6 Sudeste 21 Este 0.6 916.9 1.2 98
2019-12-01 09:00:00 4.9 9 Sudeste 16 Sudeste 0.2 916.4 0.5 98
2019-12-01 08:00:00 5 5 Sudeste 14 Sudeste 0.2 915.9 -0.1 98
2019-12-01 07:00:00 5.1 6 Sur 16 Sudoeste 0.2 915.7 -0.9 98
2019-12-01 06:00:00 5.2 6 Sur 17 Sudoeste 0.2 915.9 -1.2 98
2019-12-01 05:00:00 5.2 9 Sur 19 Sudoeste 0.2 916 -1.7 99
2019-12-01 04:00:00 5.1 10 Sudoeste 17 Sudoeste 0 916.6 -1.7 99
2019-12-01 03:00:00 4.4 3 Sudoeste 13 Sudoeste 0 917.1 -1.7 99
2019-12-01 02:00:00 4.2 7 Sudoeste 16 Sudoeste 0 917.7 -1.4 99
2019-12-01 01:00:00 3.7 5 Sudoeste 12 Sudoeste 0 918.3 -1.1 99
2019-12-01 00:00:00 3.7 4 Sudoeste 13 Sudoeste 0 918.8 -0.5 99
2019-11-30 23:00:00 3.7 7 Sudoeste 15 Sudoeste 0 919.1 -0.2 99
2019-11-30 22:00:00 4.1 9 Sudoeste 18 Sudoeste 0 919.4 0 98
2019-11-30 21:00:00 3.7 5 Sur 10 Sudoeste 0 919.3 -0.2 98
2019-11-30 20:00:00 4.3 3 Sudoeste 9 Sudoeste 0 919.3 0.2 97
2019-11-30 19:00:00 5.2 0 Calma 7 Sudoeste 0 919.4 0.6 94
2019-11-30 18:00:00 7 3 Sudoeste 15 Sudoeste 0 919.5 -0.3 88
2019-11-30 17:00:00 8.2 3 Oeste 14 Oeste 0 919.1 -0.2 89
2019-11-30 16:00:00 8.1 4 Sudoeste 22 Sudoeste 0.6 918.8 -0.9 86
2019-11-30 15:00:00 8.6 6 Oeste 36 Noroeste 2.2 919.8 0 87
2019-11-30 14:00:00 10.9 3 Oeste 9 Sur 0.2 919.3 -0.8 86
2019-11-30 13:00:00 11 3 Oeste 55 Sudoeste 3.6 919.7 -0.8 91
2019-11-30 12:00:00 11.7 25 Sudoeste 52 Sudoeste 4 919.8 -1 96
2019-11-30 11:00:00 11.7 24 Sudoeste 51 Sudoeste 0 920.1 -0.8 95
2019-11-30 10:00:00 11.2 21 Sudoeste 47 Sudoeste 0 920.5 -1 98
2019-11-30 09:00:00 10.7 22 Sudoeste 43 Sudoeste 0.2 920.8 -1.1 98
2019-11-30 08:00:00 10.6 22 Sudoeste 45 Sudoeste 0.2 920.9 -1.6 98
2019-11-30 07:00:00 10.7 15 Sudoeste 38 Sudoeste 0.4 921.5 -1.3 97
2019-11-30 06:00:00 10.8 17 Sudoeste 37 Sudoeste 0 921.9 -1.3 98
2019-11-30 05:00:00 10.9 14 Sudoeste 37 Sur 0 922.5 -1.1 99
2019-11-30 04:00:00 11 18 Sudoeste 41 Sudoeste 0 922.8 -1.5 100
2019-11-30 03:00:00 10.9 16 Sudoeste 31 Sudoeste 0.4 923.2 -1.5 100
2019-11-30 02:00:00 9.3 3 Sur 8 Sur 0.6 923.6 -1.5 99
2019-11-30 01:00:00 8.5 2 Sur 5 Sudeste 0 924.3 -1.1 99
2019-11-30 00:00:00 8 0 Calma 4 Este 0.2 924.7 -0.5 99
2019-11-29 23:00:00 7.5 0 Calma 4 Norte 0 925.1 0 99
2019-11-29 22:00:00 7.1 0 Calma 3 Norte 0 925.4 0.1 98
2019-11-29 21:00:00 6.8 0 Calma 15 Este 0 925.2 0.3 97
2019-11-29 20:00:00 7.3 2 Sudeste 14 Nordeste 0 925.1 0.3 95
2019-11-29 19:00:00 8 2 Norte 3 Noroeste 0 925.3 0.3 91
2019-11-29 18:00:00 8.9 0 Calma 3 Sudoeste 0 924.9 0 86
2019-11-29 17:00:00 10.9 0 Calma 12 Sudoeste 0 924.8 -0.5 80
2019-11-29 16:00:00 12.4 4 Oeste 11 Sudoeste 0 925 -0.4 71
2019-11-29 15:00:00 12.7 4 Sudoeste 11 Sudoeste 0 924.9 -1 73
2019-11-29 14:00:00 11 3 Oeste 13 Noroeste 0 925.3 -0.3 80
2019-11-29 13:00:00 9.8 3 Sudeste 12 Este 0 925.4 0.3 97
2019-11-29 12:00:00 8.5 3 Noroeste 9 Noroeste 0 925.9 1.4 99
2019-11-29 11:00:00 7.7 2 Noroeste 9 Noroeste 0 925.6 2.1 100
2019-11-29 10:00:00 7.4 3 Noroeste 10 Norte 0 925.1 2.1 99
2019-11-29 09:00:00 7.4 0 Calma 17 Sudoeste 0 924.5 2.1 99
2019-11-29 08:00:00 7.8 7 Sudoeste 13 Sudoeste 0 923.5 1.6 99
2019-11-29 07:00:00 8.5 5 Sudoeste 9 Sudoeste 0 923 1.5 99
2019-11-29 06:00:00 8.7 0 Calma 9 Sudoeste 0 922.4 1.2 99
2019-11-29 05:00:00 9.1 2 Sudoeste 8 Oeste 0 921.9 1.2 99
2019-11-29 04:00:00 9.6 0 Calma 11 Oeste 0 921.5 1.3 99
2019-11-29 03:00:00 10 2 Sudoeste 16 Oeste 0 921.2 1.4 99
2019-11-29 02:00:00 10 3 Oeste 30 Sudoeste 0 920.7 1.4 99
2019-11-29 01:00:00 10.2 7 Sudoeste 35 Sudoeste 0 920.2 1.4 99
2019-11-29 00:00:00 10.1 15 Sudoeste 40 Sudoeste 0 919.8 1.4 99
2019-11-28 23:00:00 10 18 Sudoeste 44 Sudoeste 0.2 919.3 1.1 99
2019-11-28 22:00:00 10 21 Sudoeste 48 Sudoeste 0.2 918.8 0.5 98
2019-11-28 21:00:00 9.7 19 Sudoeste 38 Sudoeste 1.6 918.4 0.3 98
2019-11-28 20:00:00 9.8 15 Sudoeste 40 Sudoeste 1.8 918.2 0.3 98
2019-11-28 19:00:00 10 14 Sudoeste 28 Sudoeste 1 918.3 1.1 98
2019-11-28 18:00:00 10.1 13 Sudoeste 34 Sudoeste 0.4 918.1 0.5 96
2019-11-28 17:00:00 10.7 18 Sudoeste 44 Sudoeste 0 917.9 -0.5 86
2019-11-28 16:00:00 10.8 25 Sudoeste 50 Sudoeste 0 917.2 -1.4 84
2019-11-28 15:00:00 11 22 Sudoeste 50 Sudoeste 0 917.6 -1.9 83
2019-11-28 14:00:00 10.8 21 Sudoeste 46 Sudoeste 0 918.4 -0.8 86
2019-11-28 13:00:00 10.6 19 Sudoeste 44 Sudoeste 0 918.6 -0.3 86
2019-11-28 12:00:00 10.5 19 Sudoeste 45 Sudoeste 0 919.5 0.9 88
2019-11-28 11:00:00 10.1 18 Sudoeste 45 Sudoeste 0 919.2 1.3 93
2019-11-28 10:00:00 9.4 19 Sudoeste 45 Sudoeste 0 918.9 1.4 97
2019-11-28 09:00:00 9.1 13 Sudoeste 38 Sudoeste 0 918.6 1.6 98
2019-11-28 08:00:00 8.8 17 Sudoeste 45 Sudoeste 0 917.9 1 98
2019-11-28 07:00:00 8.5 15 Sudoeste 49 Sudoeste 0 917.5 0.4 98
2019-11-28 06:00:00 8.5 19 Sudoeste 44 Sudoeste 0 917 0.1 98
2019-11-28 05:00:00 8.4 19 Sudoeste 44 Sudoeste 0 916.9 0 97
2019-11-28 04:00:00 8.4 16 Sudoeste 36 Sudoeste 0 917.1 -0.1 95
2019-11-28 03:00:00 8.2 15 Sudoeste 39 Sudoeste 0 916.9 -0.2 95
2019-11-28 02:00:00 8.1 19 Sudoeste 37 Sudoeste 0 916.9 -0.1 96
2019-11-28 01:00:00 7.9 15 Sudoeste 40 Sudoeste 0 917.2 0.4 95
2019-11-28 00:00:00 8 12 Sudoeste 36 Sudoeste 0 917.1 0.6 94
2019-11-27 23:00:00 7.9 16 Sudoeste 37 Sudoeste 0 917 0.8 94
2019-11-27 22:00:00 7.9 14 Sudoeste 36 Sudoeste 0 916.8 0.9 89
2019-11-27 21:00:00 7.7 14 Sudoeste 31 Sudoeste 0 916.5 0.9 88
2019-11-27 20:00:00 7.3 9 Sudoeste 33 Sudoeste 0 916.2 0.9 88
2019-11-27 19:00:00 8.1 9 Sudoeste 38 Sudoeste 0 915.9 1.1 91
2019-11-27 18:00:00 8.5 8 Sudoeste 36 Sudoeste 0 915.6 0.8 94
2019-11-27 17:00:00 8.8 7 Sudoeste 41 Sudoeste 0 915.3 0.1 96
2019-11-27 16:00:00 8.8 17 Sudoeste 43 Sudoeste 0.8 914.8 -0.9 96
2019-11-27 15:00:00 8.9 14 Sudoeste 40 Sudoeste 0.2 914.8 -1.4 88
2019-11-27 14:00:00 9.1 17 Sudoeste 39 Sudoeste 0 915.2 -1.1 85
2019-11-27 06:00:00 6.2 14 Sudoeste 34 Sudoeste 0 913.3 1 89
2019-11-27 05:00:00 6 16 Sudoeste 38 Sur 0 913.3 1.1 88
2019-11-27 04:00:00 6.3 14 Sudoeste 37 Sudoeste 0 912.9 0.5 88
2019-11-27 03:00:00 6.4 13 Sudoeste 35 Sur 0 912.3 1 94
2019-11-27 02:00:00 7 15 Sudoeste 33 Sudoeste 0 912.2 0.8 92
2019-11-27 01:00:00 7.2 11 Sudoeste 37 Oeste 0 912.4 1.5 92
2019-11-27 00:00:00 7.9 15 Sudoeste 42 Sudoeste 0 911.3 0.6 89
2019-11-26 23:00:00 8.6 17 Sudoeste 45 Sudoeste 0 911.4 0.9 89
2019-11-26 22:00:00 9.3 16 Sudoeste 52 Sudoeste 0 910.9 0.9 90
2019-11-26 21:00:00 10 22 Sudoeste 48 Oeste 0.6 910.7 0.9 90
2019-11-26 20:00:00 10.8 23 Sudoeste 57 Sudoeste 0 910.5 0.6 84
2019-11-26 19:00:00 11.1 25 Sudoeste 57 Sur 0 910 -0.8 82
2019-11-26 18:00:00 11.8 24 Sudoeste 64 Sudoeste 0.2 909.8 -1.8 90
2019-11-26 17:00:00 12.3 21 Sudoeste 53 Sudoeste 3 909.9 -2.9 97
2019-11-26 16:00:00 12.8 19 Sudoeste 52 Sudoeste 0 910.8 -3.4 95
2019-11-26 15:00:00 12.7 26 Sudoeste 52 Sur 0.6 911.6 -3.7 97
2019-11-26 14:00:00 12.4 24 Sudoeste 47 Sudoeste 0.4 912.8 -3 96
2019-11-26 13:00:00 12.4 21 Sudoeste 44 Sudoeste 0.2 914.2 -2.1 96
2019-11-26 12:00:00 12 21 Sudoeste 49 Sudoeste 0 915.3 -1.2 92
2019-11-26 11:00:00 11.4 18 Sudoeste 40 Sudoeste 0 915.8 -0.8 99
2019-11-26 10:00:00 10.3 10 Sudoeste 25 Sudoeste 0 916.3 -0.4 99
2019-11-26 09:00:00 9.8 12 Sudoeste 25 Sur 0.8 916.5 -0.8 99
2019-11-26 08:00:00 9.1 8 Sudoeste 29 Sur 0.2 916.6 -1.5 99
2019-11-26 07:00:00 8.9 13 Sudoeste 25 Sudoeste 0.2 916.7 -1.8 99
2019-11-26 06:00:00 8.9 13 Sudoeste 24 Sudoeste 0 917.3 -1.6 98
2019-11-26 05:00:00 8.8 13 Sudoeste 25 Sudoeste 0 918.1 -1.3 98
2019-11-26 04:00:00 9 10 Sudoeste 22 Sur 0 918.5 -1.3 98
2019-11-26 03:00:00 8.6 9 Sudoeste 21 Sudoeste 0 918.9 -1 98
2019-11-26 02:00:00 8 8 Sudoeste 17 Sudoeste 0 919.4 -0.8 98
2019-11-26 01:00:00 7.7 9 Sudoeste 19 Sudoeste 0 919.8 -0.2 97
2019-11-26 00:00:00 7.2 7 Sudoeste 18 Sudoeste 0 919.9 -0.1 96
2019-11-25 23:00:00 7.7 8 Sudoeste 23 Sudoeste 0 920.2 0.1 90
2019-11-25 22:00:00 8.8 11 Sudoeste 23 Sudoeste 0 920 0.3 89
2019-11-25 21:00:00 8.8 8 Sudoeste 21 Sudoeste 0 920 0.7 91
2019-11-25 20:00:00 8.5 5 Sudoeste 16 Sudoeste 0 920.1 1 90
2019-11-25 19:00:00 8.6 5 Sudoeste 17 Sudoeste 0 919.7 0.9 86
2019-11-25 18:00:00 10.2 8 Sudoeste 21 Sudoeste 0 919.3 0.8 83
2019-11-25 17:00:00 11.1 8 Sudoeste 26 Sudoeste 0 919.1 0.7 78
2019-11-25 16:00:00 12.3 11 Sudoeste 27 Sudoeste 0 918.8 0.3 73
2019-11-25 15:00:00 14 5 Sudoeste 25 Sudoeste 0 918.5 -0.1 64
2019-11-25 14:00:00 13.7 13 Sudoeste 28 Sudoeste 0 918.4 -0.1 68
2019-11-25 13:00:00 13.5 14 Sudoeste 32 Sudoeste 0 918.5 0.3 74
2019-11-25 12:00:00 12.5 8 Sudoeste 22 Sur 0 918.6 0.9 81
2019-11-25 11:00:00 10.8 6 Sudoeste 24 Sudoeste 0 918.5 1.2 99
2019-11-25 10:00:00 9.5 6 Sudoeste 28 Oeste 0 918.2 1.5 99
2019-11-25 09:00:00 8.9 8 Sudoeste 26 Sudoeste 0 917.7 1.2 99
2019-11-25 08:00:00 8.6 8 Sudoeste 26 Sudoeste 0 917.3 0.9 99
2019-11-25 07:00:00 8.7 11 Sudoeste 33 Sudoeste 0 916.7 0.7 99
2019-11-25 06:00:00 8.6 11 Sudoeste 29 Sudoeste 0 916.5 0.7 99
2019-11-25 05:00:00 8.9 14 Sudoeste 32 Sudoeste 0 916.4 0.8 99
2019-11-25 04:00:00 8.9 11 Sudoeste 28 Sudoeste 0 916 0.4 99
2019-11-25 03:00:00 8.8 8 Sudoeste 21 Sudoeste 0.2 915.8 0 99
2019-11-25 02:00:00 8.3 8 Sudoeste 27 Sudoeste 0 915.6 -0.7 99
2019-11-25 01:00:00 7.9 11 Sudoeste 30 Sudoeste 0.2 915.6 -0.8 99
2019-11-25 00:00:00 7.9 13 Sudoeste 28 Sur 0 915.8 -0.7 99
2019-11-24 23:00:00 7.5 12 Sudoeste 28 Sudoeste 0.4 916.3 -0.9 98
2019-11-24 22:00:00 7.2 14 Sudoeste 26 Sudoeste 0.2 916.4 -1.1 98
2019-11-24 21:00:00 6.8 13 Sudoeste 26 Sudoeste 0.2 916.5 -1.6 98
2019-11-24 20:00:00 6.7 16 Sudoeste 27 Sudoeste 0.2 917.2 -0.7 97
2019-11-24 19:00:00 6.9 13 Sudoeste 23 Sudoeste 0 917.5 -0.8 89
2019-11-24 18:00:00 7 9 Sudoeste 23 Sudoeste 0 918.1 -0.3 87
2019-11-24 17:00:00 7.2 10 Sudoeste 28 Sudoeste 0 917.9 -0.9 84
2019-11-24 16:00:00 7.8 12 Sudoeste 31 Sudoeste 0 918.3 -0.8 78
2019-11-24 15:00:00 7.9 10 Sudoeste 27 Sudoeste 0 918.4 -1.8 77
2019-11-24 14:00:00 7.2 14 Sudoeste 29 Sudoeste 0 918.8 -1.1 79
2019-11-24 13:00:00 6.9 14 Sudoeste 25 Sudoeste 0 919.1 -0.5 79
2019-11-24 12:00:00 6.5 7 Sudoeste 21 Sudoeste 0 920.2 1.6 80
2019-11-24 11:00:00 5.8 6 Sudoeste 15 Sudoeste 0 919.9 1.5 82
2019-11-24 10:00:00 2.8 2 Oeste 11 Sudoeste 0 919.6 1.6 99
2019-11-24 09:00:00 1.1 3 Sudoeste 12 Oeste 0 918.6 0.8 99
2019-11-24 08:00:00 0.6 2 Sudoeste 7 Sudoeste 0 918.4 0.9 99
2019-11-24 07:00:00 0 2 Oeste 10 Oeste 0 918 0.8 99
2019-11-24 06:00:00 -0.2 0 Calma 7 Sudoeste 0 917.8 1.2 98
2019-11-24 05:00:00 0.2 0 Calma 5 Sudoeste 0 917.5 1.1 97
2019-11-24 04:00:00 1.1 3 Sudoeste 14 Sudoeste 0 917.2 0.9 97
2019-11-24 03:00:00 1.3 0 Calma 14 Oeste 0 916.6 0.9 94
2019-11-24 02:00:00 1.7 0 Calma 8 Oeste 0 916.4 0.7 90
2019-11-24 01:00:00 2.5 2 Sudoeste 17 Sudoeste 0 916.3 1.3 89
2019-11-24 00:00:00 3 3 Sudoeste 21 Sudoeste 0 915.7 1.2 89
2019-11-23 23:00:00 2.5 3 Sudoeste 10 Noroeste 0 915.7 1.9 89
2019-11-23 22:00:00 3 2 Sudeste 13 Sudoeste 0 915 1.9 88
2019-11-23 21:00:00 3.2 2 Nordeste 11 Sur 0 914.5 2.4 87
2019-11-23 20:00:00 3.7 2 Oeste 12 Sudoeste 0 913.8 2.4 85
2019-11-23 19:00:00 4.4 3 Sudoeste 14 Sudoeste 0 913.1 2.6 83
2019-11-23 18:00:00 5.9 3 Sudoeste 19 Sudoeste 0 912.1 2.2 70
2019-11-23 17:00:00 8.2 0 Calma 11 Noroeste 0 911.4 2.1 68
2019-11-23 16:00:00 9.6 2 Oeste 13 Oeste 0 910.5 1.7 60
2019-11-23 15:00:00 9.8 4 Oeste 20 Noroeste 0 909.9 1.4 60
2019-11-23 14:00:00 10.7 5 Oeste 23 Noroeste 0 909.3 1.5 55
2019-11-23 13:00:00 10.1 5 Oeste 18 Oeste 0 908.8 2.5 60
2019-11-23 12:00:00 9.6 4 Oeste 18 Sudoeste 0 908.5 4 65
2019-11-23 11:00:00 7.4 3 Oeste 24 Sudeste 0 907.8 5 78
2019-11-23 10:00:00 3.4 3 Sudoeste 21 Oeste 0 906.3 4.8 85
2019-11-23 09:00:00 2.9 4 Sudoeste 21 Sudoeste 0 904.5 4.5 85
2019-11-23 08:00:00 3 4 Sudoeste 26 Sudoeste 0 902.8 4.1 84
2019-11-23 07:00:00 3.1 6 Sudoeste 23 Oeste 0 901.5 3.8 85
2019-11-23 06:00:00 3.7 5 Sudoeste 31 Oeste 0 900 3.3 84
2019-11-23 05:00:00 3.7 5 Oeste 26 Sudoeste 0 898.7 2.7 86
2019-11-23 04:00:00 4 4 Sudoeste 29 Oeste 0 897.7 2.2 84
2019-11-23 03:00:00 4.7 4 Sudoeste 30 Oeste 0 896.7 1.6 84
2019-11-23 02:00:00 5.2 9 Sudoeste 35 Sudoeste 0 896 0.9 87
2019-11-23 01:00:00 5.8 14 Sudoeste 55 Sudoeste 0 895.5 0.4 86
2019-11-23 00:00:00 5.8 16 Sudoeste 50 Sudoeste 0 895.1 0 87
2019-11-22 23:00:00 6.5 22 Sudoeste 48 Sur 0 895.1 -0.1 92
2019-11-22 22:00:00 7 23 Sudoeste 51 Sudoeste 0 895.1 0.3 88
2019-11-22 21:00:00 7.1 22 Sudoeste 50 Sudoeste 0.2 895.1 0.1 90
2019-11-22 20:00:00 6.8 20 Sudoeste 42 Sudoeste 0.2 895.2 1 88
2019-11-22 19:00:00 6.9 16 Sudoeste 42 Sudoeste 0 894.8 1 83
2019-11-22 18:00:00 8.1 10 Sudoeste 41 Sudoeste 0.2 895 0.9 83
2019-11-22 17:00:00 9.7 18 Sudoeste 46 Sudoeste 0 894.2 -0.4 78
2019-11-22 16:00:00 10.3 13 Sudoeste 54 Sudoeste 3.2 893.8 -1.8 88
2019-11-22 15:00:00 12 30 Sudoeste 55 Sudoeste 0.2 894.1 -3 84
2019-11-22 14:00:00 10.2 28 Sudoeste 53 Sudoeste 1.8 894.6 -3.9 98
2019-11-22 13:00:00 8.6 20 Sur 58 Sudoeste 2.2 895.6 -4.4 89
2019-11-22 12:00:00 8.3 18 Sur 46 Sur 0.4 897.1 -4.3 88
2019-11-22 11:00:00 7.2 16 Sur 45 Sur 0.4 898.5 -4.6 96
2019-11-22 10:00:00 6.6 19 Sur 48 Sur 0.8 900 -4 98
2019-11-22 09:00:00 6.2 14 Sur 36 Sur 1.6 901.4 -3.9 98
2019-11-22 08:00:00 6.1 13 Sur 41 Sur 2 903.1 -3.2 98
2019-11-22 07:00:00 5.8 13 Sur 33 Sudoeste 1.6 904 -3.5 98
2019-11-22 06:00:00 5.6 9 Sur 21 Sur 0.8 905.3 -3.1 98
2019-11-22 05:00:00 5.6 9 Sudoeste 26 Sudoeste 0.4 906.3 -2.7 98
2019-11-22 04:00:00 5.5 9 Sudoeste 21 Sudoeste 0 907.5 -2.3 98
2019-11-22 03:00:00 5.4 12 Sudoeste 27 Sudoeste 0.4 908.4 -1.9 97
2019-11-22 02:00:00 5 9 Sudoeste 18 Sudoeste 0 909 -2 97
2019-11-22 01:00:00 4.2 5 Sudoeste 12 Sudoeste 0 909.8 -1.4 91
2019-11-22 00:00:00 3.9 4 Sur 11 Sur 0 910.3 -0.9 94
2019-11-21 23:00:00 3.4 4 Sudoeste 14 Sudoeste 0 911 -0.5 90
2019-11-21 22:00:00 3.7 8 Sudoeste 14 Sudoeste 0 911.2 -0.2 96
2019-11-21 21:00:00 2.8 4 Sur 12 Sur 0 911.2 0.2 96
2019-11-21 20:00:00 2.4 3 Sudoeste 7 Sudoeste 0 911.5 0.3 85
2019-11-21 19:00:00 4.2 3 Sudoeste 8 Sudoeste 0 911.4 0.3 81
2019-11-21 18:00:00 6.1 5 Sudoeste 12 Sudoeste 0 911 0 74
2019-11-21 17:00:00 8.3 6 Sudoeste 17 Sudoeste 0 911.2 0.1 62
2019-11-21 16:00:00 10.3 13 Sudoeste 30 Sudoeste 0 911.1 -0.3 52
2019-11-21 15:00:00 10.2 8 Sudoeste 26 Sudoeste 0 911 -0.9 56
2019-11-21 14:00:00 9.7 6 Sudoeste 30 Sudoeste 0 911.1 -0.7 65
2019-11-21 13:00:00 9.6 9 Sudoeste 24 Sudoeste 0 911.4 -0.2 66
2019-11-21 12:00:00 8.1 7 Sudoeste 17 Oeste 0 911.9 0.5 81
2019-11-21 11:00:00 5.9 2 Oeste 15 Oeste 0 911.8 0.8 95
2019-11-21 10:00:00 5.4 4 Sudoeste 23 Sudoeste 0.6 911.6 0.8 98
2019-11-21 09:00:00 4.9 11 Sudoeste 25 Sudoeste 0.6 911.4 0.4 97
2019-11-21 08:00:00 4.7 10 Sudoeste 30 Sudoeste 0 911 0.2 96
2019-11-21 07:00:00 4.7 13 Sudoeste 25 Sudoeste 0 910.8 -0.4 97
2019-11-21 06:00:00 4.5 13 Sudoeste 30 Sudoeste 0 911 -0.2 97
2019-11-21 05:00:00 4.5 12 Sudoeste 31 Sudoeste 0 910.8 -0.3 96
2019-11-21 04:00:00 4.5 14 Sudoeste 30 Sudoeste 0 911.2 -0.1 96
2019-11-21 03:00:00 4.7 14 Sudoeste 31 Sudoeste 0 911.2 -0.4 95
2019-11-21 02:00:00 4.9 15 Sudoeste 31 Sudoeste 0 911.1 -0.6 95
2019-11-21 01:00:00 5.1 13 Sudoeste 28 Sudoeste 0 911.3 -0.4 95
2019-11-21 00:00:00 5.2 12 Sudoeste 34 Sudoeste 0 911.6 -0.2 96
2019-11-20 23:00:00 5.3 12 Sudoeste 30 Sudoeste 0 911.7 -0.1 97
2019-11-20 22:00:00 5.4 10 Sudoeste 21 Sudoeste 0.4 911.7 0.2 97
2019-11-20 21:00:00 5.2 5 Sudoeste 21 Sudoeste 0 911.8 0.3 97
2019-11-20 20:00:00 5.1 8 Sudoeste 20 Sudoeste 0 911.8 0.1 97
2019-11-20 19:00:00 5 9 Sudoeste 21 Sudoeste 0 911.5 -0.4 97
2019-11-20 18:00:00 5.3 10 Sudoeste 24 Sur 0 911.5 -0.6 96
2019-11-20 17:00:00 5.5 12 Sudoeste 27 Sudoeste 0.4 911.7 -0.8 96
2019-11-20 16:00:00 5.7 10 Sudoeste 24 Sudoeste 0.4 911.9 -1.3 92
2019-11-20 15:00:00 5.4 5 Sudoeste 27 Sudoeste 1.2 912.1 -1.8 89
2019-11-20 14:00:00 6.1 11 Sudoeste 28 Sudoeste 1 912.5 -1.9 96
2019-11-20 13:00:00 6.1 13 Sudoeste 26 Sur 0.4 913.2 -1.5 98
2019-11-20 12:00:00 4.8 6 Sudoeste 16 Sur 0 913.9 -0.7 97
2019-11-20 11:00:00 4.3 6 Sur 14 Sur 0.6 914.4 -0.2 97
2019-11-20 10:00:00 3.9 4 Sur 9 Sur 0.2 914.7 -0.2 92
2019-11-20 09:00:00 3.5 0 Calma 6 Sudeste 0 914.6 -0.6 94
2019-11-20 08:00:00 3.4 2 Este 6 Sudeste 0 914.6 -1 95
2019-11-20 07:00:00 3.4 3 Sudeste 8 Sudeste 0 914.9 -1.2 97
2019-11-20 06:00:00 3.3 2 Este 5 Sudeste 0 915.2 -1.6 98
2019-11-20 05:00:00 3.1 0 Calma 4 Este 0 915.6 -1.4 98
2019-11-20 04:00:00 3.3 0 Calma 3 Este 0 916.1 -1.7 97
2019-11-20 03:00:00 3.6 2 Noroeste 4 Noroeste 0 916.8 -1.6 98
2019-11-20 02:00:00 3.4 0 Calma 4 Este 0 917 -1.8 98
2019-11-20 01:00:00 3.3 0 Calma 3 Este 0 917.8 -1.1 98
2019-11-20 00:00:00 3.3 2 Este 4 Noroeste 0 918.4 -0.7 98
2019-11-19 23:00:00 3.2 0 Calma 2 Noroeste 0 918.8 -0.4 98
2019-11-19 22:00:00 2.9 0 Calma 3 Oeste 0 918.9 -0.3 98
2019-11-19 21:00:00 1.9 0 Calma 2 Oeste 0 919.1 -0.3 97
2019-11-19 20:00:00 1.8 0 Calma -- -- 0 919.2 -0.1 88
2019-11-19 19:00:00 3.1 0 Calma 3 Oeste 0 919.2 -0.5 84
2019-11-19 18:00:00 4.7 0 Calma 9 Sudoeste 0 919.4 -0.7 80
2019-11-19 17:00:00 6.3 5 Sudoeste 14 Sudoeste 0 919.3 -1.4 75
2019-11-19 16:00:00 7 3 Oeste 17 Sudoeste 0 919.7 -1.6 72
2019-11-19 15:00:00 7.3 3 Oeste 15 Sudoeste 0 920.1 -2.1 71
2019-11-19 14:00:00 7.3 5 Sudoeste 15 Sudoeste 0 920.7 -1.9 71
2019-11-19 13:00:00 6.2 6 Sudoeste 14 Sudoeste 0 921.3 -1.1 76
2019-11-19 12:00:00 4.1 3 Sur 9 Sudoeste 0 922.2 -0.3 86
2019-11-19 11:00:00 1.8 3 Sudoeste 6 Sudoeste 0 922.6 0.2 98
2019-11-19 10:00:00 0.1 0 Calma 4 Sudeste 0 922.4 0.1 99
2019-11-19 09:00:00 -1.2 0 Calma 3 Norte 0 922.5 0.1 100
2019-11-19 08:00:00 -3.2 0 Calma 2 Noroeste 0 922.4 -0.2 99
2019-11-19 07:00:00 -3.9 0 Calma 3 Noroeste 0 922.3 -0.5 98
2019-11-19 06:00:00 -3.5 0 Calma 3 Norte 0 922.4 -0.3 99
2019-11-19 05:00:00 -2.9 0 Calma 3 Noroeste 0 922.6 -0.1 99
2019-11-19 04:00:00 -2.8 0 Calma 3 Norte 0 922.8 -0.2 99
2019-11-19 03:00:00 -2.6 2 Norte 4 Nordeste 0 922.7 -0.6 99
2019-11-19 02:00:00 -2.3 3 Noroeste 4 Norte 0 922.7 -1 99
2019-11-19 01:00:00 -1.7 2 Noroeste 8 Sudoeste 0 923 -0.7 99
2019-11-19 00:00:00 -1.6 0 Calma 9 Sudoeste 0 923.3 -0.1 98
2019-11-18 23:00:00 -1.3 2 Norte 4 Norte 0 923.7 0.8 97
2019-11-18 22:00:00 -0.5 2 Norte 7 Noroeste 0 923.7 1.2 96
2019-11-18 21:00:00 0.3 0 Calma 5 Noroeste 0 923.4 1.1 91
2019-11-18 20:00:00 1.6 0 Calma 6 Sudoeste 0 922.9 1 88
2019-11-18 19:00:00 3.4 0 Calma 9 Nordeste 0 922.5 1 81
2019-11-18 18:00:00 5.6 5 Nordeste 9 Nordeste 0 922.3 1.1 75
2019-11-18 17:00:00 6.7 4 Nordeste 15 Nordeste 0 921.9 0.7 68
2019-11-18 16:00:00 7.1 8 Este 20 Nordeste 0 921.5 0.2 69
2019-11-18 15:00:00 9.4 4 Este 12 Sudeste 0 921.2 -0.2 55
2019-11-18 14:00:00 8.7 2 Sudeste 10 Este 0 921.2 -0.3 61
2019-11-18 13:00:00 7.8 0 Calma 8 Sudeste 0 921.3 0.2 63
2019-11-18 12:00:00 7.2 2 Norte 11 Noroeste 0 921.4 0.9 69
2019-11-18 11:00:00 5.5 3 Noroeste 7 Noroeste 0 921.5 1.5 79
2019-11-18 10:00:00 1.7 3 Noroeste 14 Sudoeste 0 921.1 1.8 99
2019-11-18 09:00:00 -1.1 0 Calma 4 Oeste 0 920.5 2.1 100
2019-11-18 08:00:00 -1.7 0 Calma 4 Este 0 920 2.2 99
2019-11-18 07:00:00 -1.3 3 Sudeste 6 Este 0 919.3 1.8 99
2019-11-18 06:00:00 -1.7 2 Sur 7 Noroeste 0 918.4 0.7 98
2019-11-18 05:00:00 -1.2 2 Noroeste 10 Noroeste 0 917.8 0.7 98
2019-11-18 04:00:00 -0.2 2 Norte 5 Noroeste 0 917.5 0.6 98
2019-11-18 03:00:00 -0.2 2 Este 7 Sudoeste 0 917.7 1.6 98
2019-11-18 02:00:00 0 3 Noroeste 12 Noroeste 0 917.1 1.3 96
2019-11-18 01:00:00 0 2 Noroeste 13 Norte 0 916.9 1.4 93
2019-11-18 00:00:00 0.9 5 Noroeste 14 Norte 0 916.1 1.2 87
2019-11-17 23:00:00 2.6 8 Noroeste 15 Noroeste 0 915.8 0.9 83
2019-11-17 22:00:00 2.8 3 Noroeste 19 Noroeste 0 915.5 1 86
2019-11-17 21:00:00 1.9 3 Sudoeste 5 Sudoeste 0 914.9 0.8 88
2019-11-17 20:00:00 2.1 0 Calma 4 Norte 0 914.9 1.1 84
2019-11-17 19:00:00 4 0 Calma 11 Este 0 914.5 0.7 78
2019-11-17 18:00:00 6.4 2 Sudoeste 12 Sudoeste 0 914.1 -0.3 75
2019-11-17 17:00:00 8.9 3 Sudoeste 20 Oeste 0 913.8 -1.3 66
2019-11-17 16:00:00 11.3 4 Oeste 21 Sudoeste 0 913.8 -1.7 66
2019-11-17 15:00:00 11.1 4 Sudoeste 21 Oeste 0 914.4 -1.7 72
2019-11-17 14:00:00 7.7 0 Calma 12 Sudoeste 0 915.1 -1.4 87
2019-11-17 13:00:00 6.7 3 Oeste 14 Sudoeste 0 915.5 -1 96
2019-11-17 12:00:00 5.7 4 Oeste 20 Sudoeste 0 916.1 -0.9 97
2019-11-17 11:00:00 5 7 Sudoeste 23 Sudoeste 0 916.5 -0.5 98
2019-11-17 10:00:00 4.4 8 Sudoeste 22 Sudoeste 0 916.5 -0.8 98
2019-11-17 09:00:00 3.5 11 Sudoeste 28 Sudoeste 0 917 -0.7 98
2019-11-17 08:00:00 3.1 9 Sudoeste 25 Sudoeste 0 917 -1 99
2019-11-17 07:00:00 2.5 6 Sudoeste 19 Sudoeste 0 917.3 -0.9 99
2019-11-17 06:00:00 1.3 4 Oeste 13 Sudoeste 0 917.7 -0.8 98
2019-11-17 05:00:00 0.9 5 Sudoeste 13 Sudoeste 0 918 -0.8 97
2019-11-17 04:00:00 1 5 Sudoeste 13 Sudoeste 0 918.2 -1.4 97
2019-11-17 03:00:00 0.8 5 Sudoeste 9 Sudoeste 0 918.5 -1 94
2019-11-17 02:00:00 1.1 4 Sudoeste 11 Sudoeste 0 918.8 -1.1 89
2019-11-17 01:00:00 1.3 3 Oeste 13 Sudoeste 0 919.6 -0.3 87
2019-11-17 00:00:00 2.3 5 Sudoeste 10 Sudoeste 0 919.5 -0.1 85
2019-11-16 23:00:00 2.5 0 Calma 9 Norte 0 919.9 0.1 84
2019-11-16 22:00:00 2.2 2 Noroeste 10 Noroeste 0 919.9 0.3 85
2019-11-16 21:00:00 2 0 Calma 8 Oeste 0 919.6 0.2 84
2019-11-16 20:00:00 2.3 2 Oeste 14 Sudoeste 0 919.8 0.8 81
2019-11-16 19:00:00 3 3 Sudoeste 10 Sudoeste 0 919.6 0.9 76
2019-11-16 18:00:00 4.1 2 Sur 18 Noroeste 0 919.4 1 72
2019-11-16 17:00:00 6.9 3 Oeste 18 Oeste 0 919 0.6 63
2019-11-16 16:00:00 8.3 3 Oeste 15 Oeste 0 918.7 0.3 58
2019-11-16 15:00:00 8.2 3 Oeste 12 Noroeste 0 918.4 -0.4 59
2019-11-16 14:00:00 8.4 3 Oeste 13 Noroeste 0 918.4 -0.3 62
2019-11-16 13:00:00 7.8 3 Oeste 21 Sudoeste 0 918.4 0 62
2019-11-16 12:00:00 7.4 4 Oeste 13 Noroeste 0 918.8 0.9 68
2019-11-16 11:00:00 4.8 5 Oeste 15 Noroeste 0 918.7 1.4 76
2019-11-16 10:00:00 1.1 0 Calma 5 Sur 0 918.4 1.6 100
2019-11-16 09:00:00 -1.2 2 Sur 6 Sudoeste 0 917.9 1.4 99
2019-11-16 08:00:00 -2.6 0 Calma 6 Sudoeste 0 917.3 1 99
2019-11-16 07:00:00 -2.4 0 Calma 7 Sur 0 916.8 0.7 99
2019-11-16 06:00:00 -2.4 2 Sudoeste 5 Sudoeste 0 916.5 1.3 98
2019-11-16 05:00:00 -2.5 0 Calma 14 Este 0 916.3 1.3 98
2019-11-16 04:00:00 -1.9 2 Noroeste 9 Noroeste 0 916.1 1.6 98
2019-11-16 03:00:00 -1.8 3 Noroeste 8 Oeste 0 915.2 0.8 97
2019-11-16 02:00:00 -1.6 2 Noroeste 11 Oeste 0 915 1.3 93
2019-11-16 01:00:00 -0.4 5 Noroeste 13 Noroeste 0 914.5 1.8 89
2019-11-16 00:00:00 0.9 7 Noroeste 14 Noroeste 0 914.4 2.3 86